Mont Saint Michel — FNMT — position and weather

sailwx.info

Track history (hours):
 
Tides and Currents Weather Stations Pressure Air Temp Water Temp Dewpoint Dewpoint Depression Visibility Wind Speed Wind Dir Waves Ship Positions

Mont Saint Michel

Last reported at 2020-Aug-09 05:31 UTC. Time now 2020-Aug-09 05:32 UTC.
Position N 50°49' W 001°06'.

Length 173 m; beam 29 m.

Type: Ship. MMSI: 227023100.

Date/timePositionNaut miles runAvg speedWind from/ knotsBaromVisibWave heightAir tempDewpointWater temp
2020-Aug-09 05:31N 50°49' W 001°06'7 7.1
2020-Aug-09 04:30N 50°42' W 001°01'6813.7
2020-Aug-08 23:30N 49°38' W 000°23'1515.2
2020-Aug-08 22:30N 49°24' W 000°15'7 6.6
2020-Aug-08 21:30N 49°17' W 000°15'4611.5
2020-Aug-08 17:31N 50°01' W 000°38'5117.1
2020-Aug-08 14:31N 50°49' W 001°06'0 0.3
2020-Aug-08 13:00N 50°49' W 001°06'1610.5
2020-Aug-08 11:30N 50°35' W 000°53'918.0
2020-Aug-08 11:00N 50°27' W 000°48'2717.9
2020-Aug-08 09:30N 50°01' W 000°36'918.0
2020-Aug-08 09:00N 49°52' W 000°32'1818.1
2020-Aug-08 08:00N 49°35' W 000°24'19 6.2
2020-Aug-08 05:00N 49°17' W 000°15'1111.3
2020-Aug-08 04:01N 49°28' W 000°18'917.8
2020-Aug-08 03:31N 49°37' W 000°23'816.0
2020-Aug-08 03:01N 49°44' W 000°27'3216.1
2020-Aug-08 01:01N 50°14' W 000°46'1515.5
2020-Aug-08 00:01N 50°29' W 000°52'2110.7
2020-Aug-07 22:00N 50°49' W 001°06'14 5.7
2020-Aug-07 19:30N 50°36' W 000°57'3517.7
2020-Aug-07 17:30N 50°02' W 000°41'1919.2
2020-Aug-07 16:30N 49°44' W 000°30'2811.4
2020-Aug-07 14:01N 49°17' W 000°15'0 0.1
2020-Aug-07 13:00N 49°17' W 000°15'815.4
2020-Aug-07 12:30N 49°25' W 000°17'3517.5
2020-Aug-07 10:30N 49°58' W 000°35'917.1
2020-Aug-07 10:00N 50°06' W 000°41'4613.1
2020-Aug-07 06:31N 50°49' W 001°06'1 1.0
2020-Aug-07 05:01N 50°47' W 001°07'612.5
2020-Aug-07 04:30N 50°42' W 001°01'714.3
2020-Aug-07 04:00N 50°35' W 000°58'611.7
2020-Aug-07 03:30N 50°30' W 000°54'3112.2
2020-Aug-07 01:00N 50°01' W 000°37'2315.3
2020-Aug-06 23:30N 49°40' W 000°24'2311.6
2020-Aug-06 21:30N 49°17' W 000°15'0 0.1
2020-Aug-06 20:00N 49°17' W 000°15'7418.6
2020-Aug-06 16:00N 50°28' W 000°52'23 9.1
2020-Aug-06 13:30N 50°49' W 001°06'9712.9
2020-Aug-06 06:01N 49°17' W 000°15'0 0.0
2020-Aug-06 05:30N 49°17' W 000°15'3 2.7
2020-Aug-06 04:30N 49°20' W 000°15'713.7
2020-Aug-06 04:00N 49°26' W 000°19'2713.5
2020-Aug-06 02:00N 49°52' W 000°34'713.6
2020-Aug-06 01:30N 49°58' W 000°38'4414.5
2020-Aug-05 22:30N 50°39' W 000°59'10 4.2
2020-Aug-05 20:00N 50°49' W 001°06'0 0.0
2020-Aug-05 19:30N 50°49' W 001°06'11 5.4
2020-Aug-05 17:30N 50°39' W 000°58'5515.8
2020-Aug-05 14:00N 49°48' W 000°26'1616.0
2020-Aug-05 13:01N 49°32' W 000°19'815.7
2020-Aug-05 12:30N 49°25' W 000°15'7 2.5
2020-Aug-05 09:30N 49°17' W 000°15'0 0.0
2020-Aug-05 06:30N 49°17' W 000°15'10 5.1
2020-Aug-05 04:30N 49°27' W 000°20'6015.0
2020-Aug-05 00:30N 50°24' W 000°50'2713.5
2020-Aug-04 22:30N 50°49' W 001°07'1 0.3
2020-Aug-04 21:00N 50°49' W 001°06'7 6.8
2020-Aug-04 20:00N 50°43' W 000°60'5518.2
2020-Aug-04 17:00N 49°51' W 000°34'2 0.3
2020-Aug-04 11:00N 49°50' W 000°32'2617.4
2020-Aug-04 09:30N 50°15' W 000°46'918.6
2020-Aug-04 09:00N 50°23' W 000°52'919.0
2020-Aug-04 08:30N 50°32' W 000°57'16 4.5
2020-Aug-04 05:00N 50°47' W 001°06'1312.7
2020-Aug-04 04:00N 50°36' W 000°56'1514.6
2020-Aug-04 03:01N 50°22' W 000°50'6313.9
2020-Aug-03 22:30N 49°23' W 000°15'35 7.0
2020-Aug-03 17:30N 49°55' W 000°37'1717.1
2020-Aug-03 16:31N 50°12' W 000°45'1818.2
2020-Aug-03 15:30N 50°29' W 000°54'21 8.5
2020-Aug-03 13:01N 50°49' W 001°06'2612.1
2020-Aug-03 10:50N 50°24' W 000°50'1517.9
2020-Aug-03 10:01N 50°10' W 000°42'917.5
2020-Aug-03 09:30N 50°02' W 000°37'917.2
2020-Aug-03 09:00N 49°54' W 000°33'3417.0
2020-Aug-03 07:00N 49°22' W 000°15'5 3.2
2020-Aug-03 05:30N 49°17' W 000°15'3 3.0
2020-Aug-03 04:30N 49°20' W 000°14'1515.2
2020-Aug-03 03:31N 49°35' W 000°22'6016.5
2020-Aug-02 23:52N 50°31' W 000°54'35 5.5
2020-Aug-02 17:30N 49°58' W 000°37'1817.8
2020-Aug-02 16:30N 49°41' W 000°29'25 8.5
2020-Aug-02 13:31N 49°17' W 000°15'0 0.2
2020-Aug-02 13:01N 49°17' W 000°15'816.2
2020-Aug-02 12:30N 49°25' W 000°17'3718.5
2020-Aug-02 10:30N 50°00' W 000°36'918.5
2020-Aug-02 10:00N 50°09' W 000°42'4312.2
2020-Aug-02 06:30N 50°49' W 001°06'2 1.4
2020-Aug-02 05:01N 50°47' W 001°06'613.0
2020-Aug-02 04:31N 50°42' W 000°58'815.1
2020-Aug-02 04:00N 50°35' W 000°56'1515.2
2020-Aug-02 03:00N 50°20' W 000°48'1515.6
2020-Aug-02 02:01N 50°06' W 000°39'1515.3
2020-Aug-02 01:01N 49°51' W 000°32'3012.1
2020-Aug-01 22:30N 49°23' W 000°16'7110.8
2020-Aug-01 16:00N 50°29' W 000°53'2110.5
2020-Aug-01 14:01N 50°49' W 001°06'15 6.1
2020-Aug-01 11:30N 50°35' W 000°56'3718.6
2020-Aug-01 09:30N 50°00' W 000°35'4511.2
2020-Aug-01 05:30N 49°17' W 000°15'2911.5
2020-Aug-01 03:00N 49°45' W 000°26'917.8
2020-Aug-01 02:30N 49°54' W 000°31'3417.0
2020-Aug-01 00:30N 50°25' W 000°50'815.1
2020-Aug-01 00:00N 50°33' W 000°54'18 7.1
2020-Jul-31 21:31N 50°49' W 001°06'5214.8
2020-Jul-31 18:00N 50°00' W 000°37'4518.1
2020-Jul-31 15:30N 49°17' W 000°15'18 5.1
2020-Jul-31 12:00N 49°35' W 000°21'3617.8
2020-Jul-31 10:00N 50°09' W 000°38'4412.5
2020-Jul-31 06:30N 50°49' W 001°06'0 0.0
2020-Jul-31 06:01N 50°49' W 001°06'2 2.4
2020-Jul-31 05:00N 50°46' W 001°06'1514.9
2020-Jul-31 04:01N 50°32' W 000°58'4615.2
2020-Jul-31 01:00N 49°49' W 000°35'611.8
2020-Jul-31 00:30N 49°44' W 000°32'2411.8
2020-Jul-30 22:30N 49°22' W 000°16'5 5.1
2020-Jul-30 21:30N 49°17' W 000°15'0 0.0
2020-Jul-30 20:30N 49°17' W 000°15'8 8.0
2020-Jul-30 19:31N 49°25' W 000°17'8914.9
2020-Jul-30 13:30N 50°49' W 001°06'3210.6
2020-Jul-30 10:30N 50°19' W 000°50'2617.5
2020-Jul-30 09:00N 49°55' W 000°33'1019.3
2020-Jul-30 08:30N 49°46' W 000°27'2911.8
2020-Jul-30 06:01N 49°17' W 000°15'  
Track history (hours):
 
Tides and Currents Weather Stations Pressure Air Temp Water Temp Dewpoint Dewpoint Depression Visibility Wind Speed Wind Dir Waves Ship Positions

Mont Saint Michel

Last reported at 2020-Aug-09 05:31 UTC. Time now 2020-Aug-09 05:32 UTC.
Position N 50°49' W 001°06'.

Length 173 m; beam 29 m.

Type: Ship. MMSI: 227023100.

Date/timePositionNaut miles runAvg speedWind from/ knotsBaromVisibWave heightAir tempDewpointWater temp
2020-Aug-09 05:31N 50°49' W 001°06'7 7.1
2020-Aug-09 04:30N 50°42' W 001°01'6813.7
2020-Aug-08 23:30N 49°38' W 000°23'1515.2
2020-Aug-08 22:30N 49°24' W 000°15'7 6.6
2020-Aug-08 21:30N 49°17' W 000°15'4611.5
2020-Aug-08 17:31N 50°01' W 000°38'5117.1
2020-Aug-08 14:31N 50°49' W 001°06'0 0.3
2020-Aug-08 13:00N 50°49' W 001°06'1610.5
2020-Aug-08 11:30N 50°35' W 000°53'918.0
2020-Aug-08 11:00N 50°27' W 000°48'2717.9
2020-Aug-08 09:30N 50°01' W 000°36'918.0
2020-Aug-08 09:00N 49°52' W 000°32'1818.1
2020-Aug-08 08:00N 49°35' W 000°24'19 6.2
2020-Aug-08 05:00N 49°17' W 000°15'1111.3
2020-Aug-08 04:01N 49°28' W 000°18'917.8
2020-Aug-08 03:31N 49°37' W 000°23'816.0
2020-Aug-08 03:01N 49°44' W 000°27'3216.1
2020-Aug-08 01:01N 50°14' W 000°46'1515.5
2020-Aug-08 00:01N 50°29' W 000°52'2110.7
2020-Aug-07 22:00N 50°49' W 001°06'14 5.7
2020-Aug-07 19:30N 50°36' W 000°57'3517.7
2020-Aug-07 17:30N 50°02' W 000°41'1919.2
2020-Aug-07 16:30N 49°44' W 000°30'2811.4
2020-Aug-07 14:01N 49°17' W 000°15'0 0.1
2020-Aug-07 13:00N 49°17' W 000°15'815.4
2020-Aug-07 12:30N 49°25' W 000°17'3517.5
2020-Aug-07 10:30N 49°58' W 000°35'917.1
2020-Aug-07 10:00N 50°06' W 000°41'4613.1
2020-Aug-07 06:31N 50°49' W 001°06'1 1.0
2020-Aug-07 05:01N 50°47' W 001°07'612.5
2020-Aug-07 04:30N 50°42' W 001°01'714.3
2020-Aug-07 04:00N 50°35' W 000°58'611.7
2020-Aug-07 03:30N 50°30' W 000°54'3112.2
2020-Aug-07 01:00N 50°01' W 000°37'2315.3
2020-Aug-06 23:30N 49°40' W 000°24'2311.6
2020-Aug-06 21:30N 49°17' W 000°15'0 0.1
2020-Aug-06 20:00N 49°17' W 000°15'7418.6
2020-Aug-06 16:00N 50°28' W 000°52'23 9.1
2020-Aug-06 13:30N 50°49' W 001°06'9712.9
2020-Aug-06 06:01N 49°17' W 000°15'0 0.0
2020-Aug-06 05:30N 49°17' W 000°15'3 2.7
2020-Aug-06 04:30N 49°20' W 000°15'713.7
2020-Aug-06 04:00N 49°26' W 000°19'2713.5
2020-Aug-06 02:00N 49°52' W 000°34'713.6
2020-Aug-06 01:30N 49°58' W 000°38'4414.5
2020-Aug-05 22:30N 50°39' W 000°59'10 4.2
2020-Aug-05 20:00N 50°49' W 001°06'0 0.0
2020-Aug-05 19:30N 50°49' W 001°06'11 5.4
2020-Aug-05 17:30N 50°39' W 000°58'5515.8
2020-Aug-05 14:00N 49°48' W 000°26'1616.0
2020-Aug-05 13:01N 49°32' W 000°19'815.7
2020-Aug-05 12:30N 49°25' W 000°15'7 2.5
2020-Aug-05 09:30N 49°17' W 000°15'0 0.0
2020-Aug-05 06:30N 49°17' W 000°15'10 5.1
2020-Aug-05 04:30N 49°27' W 000°20'6015.0
2020-Aug-05 00:30N 50°24' W 000°50'2713.5
2020-Aug-04 22:30N 50°49' W 001°07'1 0.3
2020-Aug-04 21:00N 50°49' W 001°06'7 6.8
2020-Aug-04 20:00N 50°43' W 000°60'5518.2
2020-Aug-04 17:00N 49°51' W 000°34'2 0.3
2020-Aug-04 11:00N 49°50' W 000°32'2617.4
2020-Aug-04 09:30N 50°15' W 000°46'918.6
2020-Aug-04 09:00N 50°23' W 000°52'919.0
2020-Aug-04 08:30N 50°32' W 000°57'16 4.5
2020-Aug-04 05:00N 50°47' W 001°06'1312.7
2020-Aug-04 04:00N 50°36' W 000°56'1514.6
2020-Aug-04 03:01N 50°22' W 000°50'6313.9
2020-Aug-03 22:30N 49°23' W 000°15'35 7.0
2020-Aug-03 17:30N 49°55' W 000°37'1717.1
2020-Aug-03 16:31N 50°12' W 000°45'1818.2
2020-Aug-03 15:30N 50°29' W 000°54'21 8.5
2020-Aug-03 13:01N 50°49' W 001°06'2612.1
2020-Aug-03 10:50N 50°24' W 000°50'1517.9
2020-Aug-03 10:01N 50°10' W 000°42'917.5
2020-Aug-03 09:30N 50°02' W 000°37'917.2
2020-Aug-03 09:00N 49°54' W 000°33'3417.0
2020-Aug-03 07:00N 49°22' W 000°15'5 3.2
2020-Aug-03 05:30N 49°17' W 000°15'3 3.0
2020-Aug-03 04:30N 49°20' W 000°14'1515.2
2020-Aug-03 03:31N 49°35' W 000°22'6016.5
2020-Aug-02 23:52N 50°31' W 000°54'35 5.5
2020-Aug-02 17:30N 49°58' W 000°37'1817.8
2020-Aug-02 16:30N 49°41' W 000°29'25 8.5
2020-Aug-02 13:31N 49°17' W 000°15'0 0.2
2020-Aug-02 13:01N 49°17' W 000°15'816.2
2020-Aug-02 12:30N 49°25' W 000°17'3718.5
2020-Aug-02 10:30N 50°00' W 000°36'918.5
2020-Aug-02 10:00N 50°09' W 000°42'4312.2
2020-Aug-02 06:30N 50°49' W 001°06'2 1.4
2020-Aug-02 05:01N 50°47' W 001°06'613.0
2020-Aug-02 04:31N 50°42' W 000°58'815.1
2020-Aug-02 04:00N 50°35' W 000°56'1515.2
2020-Aug-02 03:00N 50°20' W 000°48'1515.6
2020-Aug-02 02:01N 50°06' W 000°39'1515.3
2020-Aug-02 01:01N 49°51' W 000°32'3012.1
2020-Aug-01 22:30N 49°23' W 000°16'7110.8
2020-Aug-01 16:00N 50°29' W 000°53'2110.5
2020-Aug-01 14:01N 50°49' W 001°06'15 6.1
2020-Aug-01 11:30N 50°35' W 000°56'3718.6
2020-Aug-01 09:30N 50°00' W 000°35'4511.2
2020-Aug-01 05:30N 49°17' W 000°15'2911.5
2020-Aug-01 03:00N 49°45' W 000°26'917.8
2020-Aug-01 02:30N 49°54' W 000°31'3417.0
2020-Aug-01 00:30N 50°25' W 000°50'815.1
2020-Aug-01 00:00N 50°33' W 000°54'18 7.1
2020-Jul-31 21:31N 50°49' W 001°06'5214.8
2020-Jul-31 18:00N 50°00' W 000°37'4518.1
2020-Jul-31 15:30N 49°17' W 000°15'18 5.1
2020-Jul-31 12:00N 49°35' W 000°21'3617.8
2020-Jul-31 10:00N 50°09' W 000°38'4412.5
2020-Jul-31 06:30N 50°49' W 001°06'0 0.0
2020-Jul-31 06:01N 50°49' W 001°06'2 2.4
2020-Jul-31 05:00N 50°46' W 001°06'1514.9
2020-Jul-31 04:01N 50°32' W 000°58'4615.2
2020-Jul-31 01:00N 49°49' W 000°35'611.8
2020-Jul-31 00:30N 49°44' W 000°32'2411.8
2020-Jul-30 22:30N 49°22' W 000°16'5 5.1
2020-Jul-30 21:30N 49°17' W 000°15'0 0.0
2020-Jul-30 20:30N 49°17' W 000°15'8 8.0
2020-Jul-30 19:31N 49°25' W 000°17'8914.9
2020-Jul-30 13:30N 50°49' W 001°06'3210.6
2020-Jul-30 10:30N 50°19' W 000°50'2617.5
2020-Jul-30 09:00N 49°55' W 000°33'1019.3
2020-Jul-30 08:30N 49°46' W 000°27'2911.8
2020-Jul-30 06:01N 49°17' W 000°15'  

Dump ship's entire track history